Time;durP1;ratioP1;P1;durP2;ratioP2;P2;SDS_P1;SDS_P2;PMS_P1;PMS_P2;Temp;Humidity;BMP_temperature;BMP_pressure;BME280_temperature;BME280_humidity;BME280_pressure;Samples;Min_cycle;Max_cycle;Signal;HPM_P1;HPM_P2
2022/12/28 00:01:20;;;;;;;0.60;0.50;;;6.10;1.00;;;;;;4844033;29;21027;-78
2022/12/28 00:03:48;;;;;;;1.57;0.70;;;5.90;1.00;;;;;;4843825;29;20467;-78
2022/12/28 00:06:19;;;;;;;0.97;0.87;;;5.90;1.00;;;;;;4844178;29;20487;-78
2022/12/28 00:08:47;;;;;;;0.50;0.10;;;5.90;1.00;;;;;;4843586;29;20492;-76
2022/12/28 00:11:16;;;;;;;0.70;0.40;;;5.90;1.00;;;;;;4843795;29;20899;-78
2022/12/28 00:13:59;;;;;;;0.50;0.20;;;5.80;1.00;;;;;;4843188;29;20830;-78
2022/12/28 00:16:31;;;;;;;0.50;0.10;;;5.70;1.00;;;;;;4844708;29;20485;-78
2022/12/28 00:19:01;;;;;;;0.57;0.27;;;5.70;1.00;;;;;;4844650;29;20539;-78
2022/12/28 00:21:31;;;;;;;0.60;0.40;;;5.70;1.00;;;;;;4844168;29;20875;-78
2022/12/28 00:24:01;;;;;;;1.17;0.57;;;5.70;1.00;;;;;;4843610;29;20474;-78
2022/12/28 00:26:31;;;;;;;0.50;0.20;;;5.60;1.00;;;;;;4844378;29;20469;-78
2022/12/28 00:28:59;;;;;;;0.60;0.40;;;5.60;1.00;;;;;;4843506;29;20476;-78
2022/12/28 00:31:33;;;;;;;0.50;0.33;;;5.60;1.00;;;;;;4843513;29;20541;-78
2022/12/28 00:34:04;;;;;;;0.60;0.30;;;5.60;1.00;;;;;;4843248;29;20535;-78
2022/12/28 00:36:33;;;;;;;1.73;0.77;;;5.70;1.00;;;;;;4844019;29;20822;-78
2022/12/28 00:39:21;;;;;;;2.80;2.70;;;5.70;1.00;;;;;;4843592;29;20449;-78
2022/12/28 00:41:49;;;;;;;0.60;0.40;;;5.70;1.00;;;;;;4843988;29;20824;-77
2022/12/28 00:44:17;;;;;;;3.97;1.63;;;5.70;1.00;;;;;;4843674;29;20862;-76
2022/12/28 00:46:45;;;;;;;0.50;0.10;;;5.70;1.00;;;;;;4843732;29;20528;-77
2022/12/28 00:49:13;;;;;;;0.60;0.60;;;5.70;1.00;;;;;;4843164;29;20488;-77
2022/12/28 00:51:43;;;;;;;0.50;0.10;;;5.80;1.00;;;;;;4843878;29;20452;-77
2022/12/28 00:54:11;;;;;;;0.50;0.10;;;5.80;1.00;;;;;;4843601;29;20448;-77
2022/12/28 00:56:41;;;;;;;0.50;0.20;;;5.90;1.00;;;;;;4843427;29;20472;-76
2022/12/28 00:59:09;;;;;;;3.63;3.50;;;5.90;1.00;;;;;;4843958;29;20440;-77
2022/12/28 05:00:11;;;;;;;0.50;0.20;;;;;;;;;;5890973;23;20381;31
2022/12/28 05:02:41;;;;;;;0.50;0.10;;;6.70;1.00;;;;;;4890117;29;20495;-79
2022/12/28 05:05:13;;;;;;;0.50;0.10;;;6.60;1.00;;;;;;4893557;29;20454;-78
2022/12/28 05:07:41;;;;;;;0.87;0.83;;;6.60;1.00;;;;;;4890413;29;20562;-79
2022/12/28 05:10:09;;;;;;;1.50;1.40;;;6.60;1.00;;;;;;4887305;29;20462;-80
2022/12/28 05:12:37;;;;;;;2.50;1.93;;;6.60;1.00;;;;;;4868397;29;20864;-79
2022/12/28 05:15:06;;;;;;;0.50;0.23;;;6.60;1.00;;;;;;4895279;23;20585;-71
2022/12/28 05:17:34;;;;;;;0.50;0.10;;;6.60;1.00;;;;;;4897279;29;20453;-71
2022/12/28 05:20:03;;;;;;;4.23;1.70;;;6.60;1.00;;;;;;4897504;29;20450;-71
2022/12/28 05:22:32;;;;;;;1.77;0.47;;;6.60;1.00;;;;;;4897618;29;20513;-70
2022/12/28 05:25:07;;;;;;;0.60;0.30;;;6.60;1.00;;;;;;4897460;29;20480;-72
2022/12/28 05:27:35;;;;;;;0.80;0.70;;;6.70;1.00;;;;;;4878453;29;20472;-71
2022/12/28 05:30:04;;;;;;;0.50;0.20;;;6.60;1.00;;;;;;4879063;29;20443;-71
2022/12/28 05:32:32;;;;;;;0.50;0.30;;;6.70;1.00;;;;;;4878777;29;20817;-72
2022/12/28 05:34:59;;;;;;;6.57;2.53;;;6.70;1.00;;;;;;4886879;29;20545;-71
2022/12/28 05:37:28;;;;;;;0.50;0.20;;;6.70;1.00;;;;;;4893093;29;20455;-71
2022/12/28 05:39:56;;;;;;;0.80;0.40;;;6.70;1.00;;;;;;4877441;29;20442;-72
2022/12/28 05:42:24;;;;;;;4.13;1.47;;;6.80;1.00;;;;;;4877276;29;20979;-71
2022/12/28 05:44:52;;;;;;;0.50;0.10;;;6.80;1.00;;;;;;4887619;29;20469;-74
2022/12/28 05:47:19;;;;;;;0.50;0.17;;;6.80;1.00;;;;;;4895981;29;20446;-71
2022/12/28 05:49:47;;;;;;;0.70;0.20;;;6.90;1.00;;;;;;4896871;29;20550;-70
2022/12/28 05:52:15;;;;;;;0.50;0.10;;;6.90;1.00;;;;;;4898056;29;20446;-71
2022/12/28 05:54:44;;;;;;;0.70;0.30;;;6.90;1.00;;;;;;4897808;29;20461;-72
2022/12/28 05:57:12;;;;;;;0.50;0.20;;;6.90;1.00;;;;;;4897275;29;20450;-71
2022/12/28 05:59:39;;;;;;;0.50;0.10;;;7.00;1.00;;;;;;4897018;29;20498;-70
2022/12/28 06:02:07;;;;;;;0.53;0.33;;;7.00;1.00;;;;;;4895951;29;20454;-70
2022/12/28 06:04:35;;;;;;;0.60;0.60;;;7.10;1.00;;;;;;4896947;29;20469;-72
2022/12/28 06:07:03;;;;;;;0.50;0.10;;;7.10;1.00;;;;;;4897663;29;20802;-71
2022/12/28 06:09:31;;;;;;;0.50;0.10;;;7.10;1.00;;;;;;4897175;29;20537;-72
2022/12/28 06:12:01;;;;;;;0.50;0.10;;;7.10;1.00;;;;;;4897379;29;20445;-71
2022/12/28 06:14:28;;;;;;;0.50;0.10;;;7.20;1.00;;;;;;4897190;29;20468;-72
2022/12/28 06:16:56;;;;;;;0.60;0.40;;;7.20;1.00;;;;;;4896905;29;20592;-71
2022/12/28 06:19:24;;;;;;;0.50;0.10;;;7.20;1.00;;;;;;4897140;29;20986;-72
2022/12/28 06:21:52;;;;;;;0.50;0.13;;;7.30;1.00;;;;;;4897163;29;20446;-71
2022/12/28 06:24:19;;;;;;;1.37;0.50;;;7.30;1.00;;;;;;4896837;29;21019;-72
2022/12/28 06:26:47;;;;;;;0.50;0.20;;;7.30;1.00;;;;;;4899776;29;20529;-73
2022/12/28 06:29:19;;;;;;;1.27;0.63;;;7.30;1.00;;;;;;4900326;29;20528;-70
2022/12/28 06:31:49;;;;;;;0.60;0.20;;;7.30;1.00;;;;;;4899954;29;20519;-71
2022/12/28 06:34:17;;;;;;;1.30;1.20;;;7.30;1.00;;;;;;4900724;29;20213;-71
2022/12/28 06:36:46;;;;;;;0.50;0.10;;;7.30;1.00;;;;;;4900161;29;20482;-73
2022/12/28 06:39:14;;;;;;;0.50;0.10;;;7.40;1.00;;;;;;4896444;29;20457;-73
2022/12/28 06:41:42;;;;;;;0.50;0.10;;;7.40;1.00;;;;;;4900307;29;20513;-72
2022/12/28 06:44:12;;;;;;;0.50;0.10;;;7.40;1.00;;;;;;4900562;29;20449;-72
2022/12/28 06:46:42;;;;;;;0.50;0.30;;;7.40;1.00;;;;;;4900239;29;20469;-73
2022/12/28 06:49:10;;;;;;;0.70;0.60;;;7.40;1.00;;;;;;4900091;29;20489;-71
2022/12/28 06:51:40;;;;;;;0.50;0.20;;;7.40;1.00;;;;;;4900181;29;20453;-72
2022/12/28 06:54:09;;;;;;;0.57;0.33;;;7.40;1.00;;;;;;4900011;29;20446;-72
2022/12/28 06:56:37;;;;;;;0.50;0.10;;;7.40;1.00;;;;;;4899859;29;20480;-72
2022/12/28 06:59:05;;;;;;;0.80;0.77;;;7.50;1.00;;;;;;4899765;29;20453;-72
2022/12/28 07:01:35;;;;;;;0.70;0.40;;;7.40;1.00;;;;;;4899895;29;20453;-72
2022/12/28 07:04:06;;;;;;;0.50;0.10;;;7.40;1.00;;;;;;4899533;29;20510;-72
2022/12/28 07:06:36;;;;;;;2.83;0.50;;;7.50;1.00;;;;;;4899355;29;20902;-72
2022/12/28 07:09:06;;;;;;;2.70;1.63;;;7.50;1.00;;;;;;4895403;29;20605;-72
2022/12/28 07:11:34;;;;;;;0.60;0.30;;;7.50;1.00;;;;;;4894491;29;20457;-72
2022/12/28 07:14:02;;;;;;;0.50;0.10;;;7.40;1.00;;;;;;4899159;29;20454;-71
2022/12/28 07:16:31;;;;;;;4.23;2.77;;;7.50;1.00;;;;;;4898873;29;20560;-72
2022/12/28 07:18:59;;;;;;;2.37;2.17;;;7.50;1.00;;;;;;4899227;29;20457;-72
2022/12/28 07:21:30;;;;;;;0.50;0.10;;;7.40;1.00;;;;;;4898723;29;20509;-73
2022/12/28 07:23:58;;;;;;;0.70;0.40;;;7.40;1.00;;;;;;4897669;29;20454;-71
2022/12/28 07:26:28;;;;;;;0.50;0.10;;;7.50;1.00;;;;;;4899148;29;20482;-72
2022/12/28 07:28:59;;;;;;;0.50;0.10;;;7.50;1.00;;;;;;4898705;29;20481;-72
2022/12/28 07:31:29;;;;;;;0.50;0.27;;;7.50;1.00;;;;;;4880951;29;20473;-72
2022/12/28 07:33:59;;;;;;;0.63;0.47;;;7.50;1.00;;;;;;4893622;29;20878;-71
2022/12/28 07:36:30;;;;;;;0.60;0.30;;;7.40;1.00;;;;;;4898759;29;20848;-75
2022/12/28 07:38:58;;;;;;;0.63;0.50;;;7.40;1.00;;;;;;4899168;29;20485;-73
2022/12/28 07:41:29;;;;;;;0.93;0.93;;;7.40;1.00;;;;;;4900131;29;20876;-73
2022/12/28 07:43:57;;;;;;;0.50;0.10;;;7.40;1.00;;;;;;4899264;29;20458;-72
2022/12/28 07:46:27;;;;;;;0.50;0.10;;;7.30;1.00;;;;;;4898556;29;20485;-73
2022/12/28 07:48:56;;;;;;;1.03;1.03;;;7.30;1.00;;;;;;4898695;29;20813;-74
2022/12/28 07:51:29;;;;;;;0.50;0.10;;;7.30;1.00;;;;;;4898630;29;20462;-73
2022/12/28 07:53:58;;;;;;;0.50;0.10;;;7.30;1.00;;;;;;4898910;29;20457;-74
2022/12/28 07:56:27;;;;;;;2.20;1.43;;;7.30;1.00;;;;;;4898507;29;20865;-72
2022/12/28 07:58:56;;;;;;;0.70;0.23;;;7.30;1.00;;;;;;4898347;29;20868;-72
2022/12/28 08:01:25;;;;;;;0.60;0.40;;;7.30;1.00;;;;;;4898541;29;20974;-74
2022/12/28 08:03:54;;;;;;;0.50;0.10;;;7.30;1.00;;;;;;4898675;29;22206;-74
2022/12/28 08:06:23;;;;;;;0.50;0.20;;;7.30;1.00;;;;;;4895981;29;20517;-73
2022/12/28 08:08:54;;;;;;;0.50;0.10;;;7.30;1.00;;;;;;4890680;29;20450;-72
2022/12/28 08:11:24;;;;;;;0.70;0.40;;;7.30;1.00;;;;;;4897401;29;20553;-72
2022/12/28 08:13:54;;;;;;;0.73;0.73;;;7.30;1.00;;;;;;4890960;29;20963;-73
2022/12/28 08:16:25;;;;;;;1.17;0.80;;;7.30;1.00;;;;;;4891373;29;20489;-72
2022/12/28 08:18:54;;;;;;;1.70;1.60;;;7.30;1.00;;;;;;4898575;29;20999;-73
2022/12/28 08:21:24;;;;;;;0.50;0.10;;;7.30;1.00;;;;;;4899154;29;20450;-73
2022/12/28 08:23:53;;;;;;;0.70;0.30;;;7.30;1.00;;;;;;4898539;29;20458;-73
2022/12/28 08:26:23;;;;;;;2.83;0.67;;;7.30;1.00;;;;;;4899223;29;20481;-72
2022/12/28 08:28:53;;;;;;;0.50;0.10;;;7.40;1.00;;;;;;4889780;29;20853;-72
2022/12/28 08:31:23;;;;;;;1.03;0.30;;;7.40;1.00;;;;;;4899306;29;20900;-72
2022/12/28 08:33:52;;;;;;;1.47;0.70;;;7.40;1.00;;;;;;4891241;29;20534;-73
2022/12/28 08:36:20;;;;;;;0.50;0.10;;;7.50;1.00;;;;;;4897056;29;20650;-74
2022/12/28 08:38:48;;;;;;;0.50;0.10;;;7.50;1.00;;;;;;4898190;29;20454;-72
2022/12/28 08:41:19;;;;;;;1.50;1.13;;;7.50;1.00;;;;;;4898534;29;20446;-73
2022/12/28 08:43:48;;;;;;;0.50;0.10;;;7.50;1.00;;;;;;4898414;29;20442;-72
2022/12/28 08:46:17;;;;;;;0.60;0.33;;;7.50;1.00;;;;;;4898180;29;20478;-73
2022/12/28 08:48:46;;;;;;;0.80;0.30;;;7.50;1.00;;;;;;4897534;29;20445;-72
2022/12/28 08:51:17;;;;;;;0.50;0.10;;;7.60;1.00;;;;;;4897213;29;20477;-72
2022/12/28 08:53:46;;;;;;;0.50;0.30;;;7.70;1.00;;;;;;4897576;29;20456;-72
2022/12/28 08:56:17;;;;;;;0.50;0.10;;;7.80;1.00;;;;;;4888700;29;20838;-71
2022/12/28 08:58:48;;;;;;;0.50;0.10;;;7.80;1.00;;;;;;4897687;29;20450;-72
2022/12/28 09:01:18;;;;;;;0.50;0.37;;;7.80;1.00;;;;;;4884131;29;20439;-74
2022/12/28 09:03:47;;;;;;;0.50;0.10;;;7.80;1.00;;;;;;4894511;29;20446;-73
